createdAt,value
2018-08-16T00:00:57.296Z,99.90
2018-08-16T00:03:26.403Z,99.90
2018-08-16T00:05:55.385Z,99.90
2018-08-16T00:08:24.476Z,99.90
2018-08-16T00:10:53.541Z,99.90
2018-08-16T00:13:22.662Z,99.90
2018-08-16T00:15:51.600Z,99.90
2018-08-16T00:18:20.539Z,99.90
2018-08-16T00:20:49.560Z,99.90
2018-08-16T00:23:18.549Z,99.90
2018-08-16T00:25:47.539Z,99.90
2018-08-16T00:28:16.827Z,99.90
2018-08-16T00:30:45.944Z,99.90
2018-08-16T00:33:15.228Z,99.90
2018-08-16T00:35:44.472Z,99.90
2018-08-16T00:38:13.524Z,99.90
2018-08-16T00:40:42.667Z,99.90
2018-08-16T00:43:11.833Z,99.90
2018-08-16T00:45:40.858Z,99.90
2018-08-16T00:48:09.997Z,99.90
2018-08-16T00:50:39.211Z,99.90
2018-08-16T00:53:08.318Z,99.90
2018-08-16T00:55:37.531Z,99.90
2018-08-16T00:58:06.621Z,99.90
2018-08-16T01:00:35.657Z,99.90
2018-08-16T01:03:04.802Z,99.90
2018-08-16T01:05:33.861Z,99.90
2018-08-16T01:08:02.982Z,99.90
2018-08-16T01:10:32.061Z,99.90
2018-08-16T01:13:01.272Z,99.90
2018-08-16T01:15:30.566Z,99.90
2018-08-16T01:17:59.920Z,99.90
2018-08-16T01:20:28.976Z,99.90
2018-08-16T01:22:58.168Z,99.90
2018-08-16T01:25:27.361Z,99.90
2018-08-16T01:27:56.558Z,99.90
2018-08-16T01:30:25.533Z,99.90
2018-08-16T01:32:54.735Z,99.90
2018-08-16T01:35:23.967Z,99.90
2018-08-16T01:37:53.275Z,99.90
2018-08-16T01:40:22.607Z,99.90
2018-08-16T01:42:51.584Z,99.90
2018-08-16T01:45:20.626Z,99.90
2018-08-16T01:47:49.797Z,99.90
2018-08-16T01:50:18.793Z,99.90
2018-08-16T01:52:47.799Z,99.90
2018-08-16T01:55:16.797Z,99.90
2018-08-16T01:57:45.950Z,99.90
2018-08-16T02:00:15.423Z,99.90
2018-08-16T02:02:44.570Z,99.90
2018-08-16T02:05:13.675Z,99.90
2018-08-16T02:07:42.970Z,99.90
2018-08-16T02:10:12.006Z,99.90
2018-08-16T02:12:41.156Z,99.90
2018-08-16T02:15:11.854Z,99.90
2018-08-16T02:17:41.167Z,99.90
2018-08-16T02:20:12.334Z,99.90
2018-08-16T02:22:41.575Z,99.90
2018-08-16T02:25:10.886Z,99.90
2018-08-16T02:27:40.236Z,99.90
2018-08-16T02:30:09.692Z,99.90
2018-08-16T02:32:39.293Z,99.90
2018-08-16T02:35:08.713Z,99.90
2018-08-16T02:37:38.879Z,99.90
2018-08-16T02:40:08.397Z,99.90
2018-08-16T02:42:37.933Z,99.90
2018-08-16T02:45:07.051Z,99.90
2018-08-16T02:47:37.238Z,99.90
2018-08-16T02:50:06.737Z,99.90
2018-08-16T02:52:35.903Z,99.90
2018-08-16T02:55:05.461Z,99.90
2018-08-16T02:57:34.473Z,99.90
2018-08-16T03:00:04.412Z,99.90
2018-08-16T03:02:33.535Z,99.90
2018-08-16T03:05:02.620Z,99.90
2018-08-16T03:07:31.934Z,99.90
2018-08-16T03:10:00.960Z,99.90
2018-08-16T03:12:29.958Z,99.90
2018-08-16T03:14:58.948Z,99.90
2018-08-16T03:17:28.146Z,99.90
2018-08-16T03:19:57.311Z,99.90
2018-08-16T03:22:26.461Z,99.90
2018-08-16T03:24:55.464Z,99.90
2018-08-16T03:27:24.675Z,99.90
2018-08-16T03:29:53.731Z,99.90
2018-08-16T03:32:22.738Z,99.90
2018-08-16T03:34:52.197Z,99.90
2018-08-16T03:37:21.408Z,99.90
2018-08-16T03:39:50.466Z,99.90
2018-08-16T03:42:19.455Z,99.90
2018-08-16T03:44:48.426Z,99.90
2018-08-16T03:47:17.846Z,99.90
2018-08-16T03:49:46.882Z,99.90
2018-08-16T03:52:16.084Z,99.90
2018-08-16T03:54:45.919Z,99.90
2018-08-16T03:57:15.209Z,99.90
2018-08-16T03:59:44.403Z,99.90
2018-08-16T04:02:13.423Z,99.90
2018-08-16T04:04:42.649Z,99.90
2018-08-16T04:07:11.740Z,99.90
2018-08-16T04:09:40.897Z,99.90
2018-08-16T04:12:10.173Z,99.90
2018-08-16T04:14:39.995Z,99.90
2018-08-16T04:17:09.484Z,99.90
2018-08-16T04:19:38.873Z,99.90
2018-08-16T04:22:07.914Z,99.90
2018-08-16T04:24:37.093Z,99.90
2018-08-16T04:27:06.275Z,99.90
2018-08-16T04:29:35.529Z,99.90
2018-08-16T04:32:04.706Z,99.90
2018-08-16T04:34:33.980Z,99.90
2018-08-16T04:37:03.050Z,99.90
2018-08-16T04:39:32.279Z,99.90
2018-08-16T04:42:01.561Z,99.90
2018-08-16T04:44:30.595Z,99.90
2018-08-16T04:46:59.599Z,99.90
2018-08-16T04:49:29.789Z,99.90
2018-08-16T04:51:58.954Z,99.90
2018-08-16T04:54:28.021Z,99.90
2018-08-16T04:56:57.205Z,99.90
2018-08-16T04:59:26.302Z,99.90
2018-08-16T05:01:55.388Z,99.90
2018-08-16T05:04:24.532Z,99.90
2018-08-16T05:06:54.065Z,99.90
2018-08-16T05:09:24.175Z,99.90
2018-08-16T05:11:53.202Z,99.90
2018-08-16T05:14:22.432Z,99.90
2018-08-16T05:16:51.866Z,99.90
2018-08-16T05:19:21.025Z,99.90
2018-08-16T05:21:50.629Z,99.90
2018-08-16T05:24:20.885Z,99.90
2018-08-16T05:26:50.018Z,99.90
2018-08-16T05:29:20.318Z,99.90
2018-08-16T05:31:49.341Z,99.90
2018-08-16T05:34:18.366Z,99.90
2018-08-16T05:36:47.539Z,99.90
2018-08-16T05:39:16.775Z,99.90
2018-08-16T05:41:45.835Z,99.90
2018-08-16T05:44:15.066Z,99.90
2018-08-16T05:46:44.352Z,99.90
2018-08-16T05:49:13.811Z,99.90
2018-08-16T05:51:44.061Z,99.90
2018-08-16T05:54:13.255Z,99.90
2018-08-16T05:56:42.463Z,99.90
2018-08-16T05:59:11.699Z,99.90
2018-08-16T06:01:40.901Z,99.90
2018-08-16T06:04:10.214Z,99.90
2018-08-16T06:06:39.490Z,99.90
2018-08-16T06:09:10.407Z,99.90
2018-08-16T06:11:39.589Z,99.90
2018-08-16T06:14:09.972Z,99.90
2018-08-16T06:16:39.174Z,99.90
2018-08-16T06:19:08.341Z,99.90
2018-08-16T06:21:37.529Z,99.90
2018-08-16T06:24:06.796Z,99.90
2018-08-16T06:26:35.976Z,99.90
2018-08-16T06:29:05.083Z,99.90
2018-08-16T06:31:34.134Z,99.90
2018-08-16T06:34:03.467Z,99.90
2018-08-16T06:36:32.609Z,99.90
2018-08-16T06:39:01.719Z,99.90
2018-08-16T06:41:30.818Z,99.90
2018-08-16T06:43:59.846Z,99.90
2018-08-16T06:46:28.909Z,99.90
2018-08-16T06:48:58.011Z,99.90
2018-08-16T06:51:27.117Z,99.90
2018-08-16T06:53:56.245Z,99.90
2018-08-16T06:56:25.288Z,99.90
2018-08-16T06:58:54.417Z,99.90
2018-08-16T07:01:23.468Z,99.90
2018-08-16T07:03:52.693Z,99.90
2018-08-16T07:06:21.730Z,99.90
2018-08-16T07:08:50.883Z,99.90
2018-08-16T07:11:19.882Z,99.90
2018-08-16T07:13:48.983Z,99.90
2018-08-16T07:16:18.134Z,99.90
2018-08-16T07:18:47.397Z,99.90
2018-08-16T07:21:16.423Z,99.90
2018-08-16T07:23:45.545Z,99.90
2018-08-16T07:26:14.563Z,99.90
2018-08-16T07:28:43.748Z,99.90
2018-08-16T07:31:13.058Z,99.90
2018-08-16T07:33:42.474Z,99.90
2018-08-16T07:36:11.517Z,99.90
2018-08-16T07:38:40.971Z,99.90
2018-08-16T07:41:10.086Z,99.90
2018-08-16T07:43:39.098Z,99.90
2018-08-16T07:46:08.307Z,99.90
2018-08-16T07:48:37.279Z,99.90
2018-08-16T07:51:06.450Z,99.90
2018-08-16T07:53:35.489Z,99.90
2018-08-16T07:56:04.500Z,99.90
2018-08-16T07:58:33.578Z,99.90
2018-08-16T08:01:02.533Z,99.90
2018-08-16T08:03:31.598Z,99.90
2018-08-16T08:06:01.065Z,99.90
2018-08-16T08:08:30.290Z,99.90
2018-08-16T08:10:59.282Z,99.90
2018-08-16T08:13:28.526Z,99.90
2018-08-16T08:15:57.552Z,99.90
2018-08-16T08:18:26.722Z,99.90
2018-08-16T08:20:55.730Z,99.90
2018-08-16T08:23:24.733Z,99.90
2018-08-16T08:25:53.740Z,99.90
2018-08-16T08:28:22.911Z,99.90
2018-08-16T08:30:51.918Z,99.90
2018-08-16T08:33:21.121Z,99.90
2018-08-16T08:36:01.927Z,99.90
2018-08-16T08:38:31.114Z,99.60
2018-08-16T08:41:00.228Z,99.30
2018-08-16T08:43:40.541Z,98.20
2018-08-16T08:46:09.815Z,97.90
2018-08-16T08:48:38.826Z,98.10
2018-08-16T08:51:07.824Z,97.50
2018-08-16T08:54:56.809Z,97.10
2018-08-16T08:57:37.898Z,95.60
2018-08-16T09:00:08.474Z,94.80
2018-08-16T09:02:37.557Z,94.00
2018-08-16T09:05:06.820Z,93.80
2018-08-16T09:07:36.005Z,92.80
2018-08-16T09:10:45.345Z,93.00
2018-08-16T09:13:25.970Z,91.10
2018-08-16T09:15:55.009Z,90.40
2018-08-16T09:18:24.023Z,90.10
2018-08-16T09:20:53.137Z,90.80
2018-08-16T09:23:22.243Z,91.50
2018-08-16T09:25:51.486Z,91.20
2018-08-16T09:28:20.503Z,90.90
2018-08-16T09:31:00.823Z,90.90
2018-08-16T09:33:41.866Z,90.80
2018-08-16T09:36:10.934Z,90.90
2018-08-16T09:38:40.107Z,91.10
2018-08-16T09:41:09.342Z,92.00
2018-08-16T09:43:38.604Z,91.10
2018-08-16T09:46:45.796Z,90.70
2018-08-16T09:49:15.606Z,90.20
2018-08-16T09:51:45.966Z,88.90
2018-08-16T09:54:16.209Z,88.40
2018-08-16T09:56:46.078Z,88.70
2018-08-16T09:59:15.447Z,90.00
2018-08-16T10:01:44.625Z,87.00
2018-08-16T10:04:15.849Z,87.20
2018-08-16T10:06:45.587Z,84.60
2018-08-16T10:09:17.720Z,84.90
2018-08-16T10:11:47.349Z,84.30
2018-08-16T10:14:16.721Z,84.10
2018-08-16T10:16:45.820Z,84.10
2018-08-16T10:19:14.945Z,80.00
2018-08-16T10:21:44.041Z,78.70
2018-08-16T10:24:13.456Z,77.60
2018-08-16T10:26:42.533Z,78.40
2018-08-16T10:29:12.169Z,78.70
2018-08-16T10:31:41.583Z,78.40
2018-08-16T10:34:10.672Z,79.30
2018-08-16T10:36:40.830Z,78.80
2018-08-16T10:39:12.383Z,80.40
2018-08-16T10:41:41.802Z,77.90
2018-08-16T10:44:11.264Z,75.90
2018-08-16T10:46:40.259Z,75.90
2018-08-16T10:49:09.505Z,75.60
2018-08-16T10:51:38.650Z,74.30
2018-08-16T10:54:07.725Z,74.20
2018-08-16T10:56:36.912Z,73.20
2018-08-16T10:59:06.222Z,77.30
2018-08-16T11:01:35.207Z,75.10
2018-08-16T11:04:04.595Z,76.00
2018-08-16T11:06:34.730Z,76.40
2018-08-16T11:09:05.843Z,77.50
2018-08-16T11:11:35.393Z,75.00
2018-08-16T11:14:04.611Z,76.10
2018-08-16T11:16:33.673Z,76.90
2018-08-16T11:19:03.777Z,74.60
2018-08-16T11:21:32.753Z,75.10
2018-08-16T11:24:01.976Z,76.80
2018-08-16T11:26:31.188Z,75.70
2018-08-16T11:29:00.339Z,76.50
2018-08-16T11:31:29.338Z,76.40
2018-08-16T11:33:58.553Z,74.80
2018-08-16T11:36:27.767Z,75.00
2018-08-16T11:38:56.969Z,75.70
2018-08-16T11:41:26.082Z,73.50
2018-08-16T11:43:55.119Z,76.40
2018-08-16T11:46:24.173Z,72.60
2018-08-16T11:48:53.776Z,70.90
2018-08-16T11:51:23.981Z,71.20
2018-08-16T11:53:53.157Z,71.60
2018-08-16T11:56:22.425Z,72.10
2018-08-16T11:58:51.478Z,70.90
2018-08-16T12:01:20.611Z,71.70
2018-08-16T12:03:49.737Z,69.50
2018-08-16T12:06:18.948Z,68.90
2018-08-16T12:08:47.984Z,69.20
2018-08-16T12:11:17.271Z,69.70
2018-08-16T12:13:46.535Z,68.20
2018-08-16T12:16:15.696Z,68.30
2018-08-16T12:18:44.781Z,66.90
2018-08-16T12:21:13.898Z,69.10
2018-08-16T12:23:43.103Z,69.10
2018-08-16T12:26:12.333Z,68.10
2018-08-16T12:28:41.602Z,69.40
2018-08-16T12:31:10.646Z,68.20
2018-08-16T12:33:39.905Z,67.60
2018-08-16T12:36:09.051Z,68.10
2018-08-16T12:38:38.035Z,67.30
2018-08-16T12:41:07.085Z,69.10
2018-08-16T12:43:36.748Z,68.80
2018-08-16T12:46:05.848Z,68.30
2018-08-16T12:48:35.871Z,68.70
2018-08-16T12:51:05.289Z,71.10
2018-08-16T12:53:35.426Z,67.90
2018-08-16T12:56:04.418Z,67.10
2018-08-16T12:58:33.819Z,67.10
2018-08-16T13:01:03.033Z,64.40
2018-08-16T13:03:32.137Z,67.00
2018-08-16T13:06:01.271Z,66.90
2018-08-16T13:08:30.367Z,66.00
2018-08-16T13:10:59.484Z,67.70
2018-08-16T13:13:28.646Z,66.20
2018-08-16T13:15:57.928Z,67.20
2018-08-16T13:18:27.073Z,69.00
2018-08-16T13:20:56.091Z,68.00
2018-08-16T13:23:25.397Z,67.00
2018-08-16T13:25:54.374Z,66.50
2018-08-16T13:28:23.452Z,67.90
2018-08-16T13:30:52.673Z,66.60
2018-08-16T13:33:21.689Z,68.20
2018-08-16T13:35:50.939Z,67.60
2018-08-16T13:38:21.152Z,68.10
2018-08-16T13:40:50.224Z,66.80
2018-08-16T13:43:19.493Z,66.90
2018-08-16T13:45:48.865Z,65.80
2018-08-16T13:48:18.096Z,67.00
2018-08-16T13:50:47.189Z,68.20
2018-08-16T13:53:16.204Z,67.00
2018-08-16T13:55:45.455Z,66.80
2018-08-16T13:58:14.755Z,66.50
2018-08-16T14:00:43.929Z,64.50
2018-08-16T14:03:13.071Z,64.10
2018-08-16T14:05:43.440Z,65.90
2018-08-16T14:08:12.661Z,68.10
2018-08-16T14:10:41.776Z,65.30
2018-08-16T14:13:11.011Z,64.60
2018-08-16T14:15:40.213Z,63.90
2018-08-16T14:18:09.403Z,63.50
2018-08-16T14:20:38.457Z,64.00
2018-08-16T14:23:07.625Z,64.50
2018-08-16T14:25:36.806Z,63.40
2018-08-16T14:28:06.003Z,64.40
2018-08-16T14:30:35.086Z,66.00
2018-08-16T14:33:04.123Z,64.30
2018-08-16T14:35:34.450Z,65.60
2018-08-16T14:38:04.204Z,66.20
2018-08-16T14:40:34.696Z,66.10
2018-08-16T14:43:03.772Z,64.60
2018-08-16T14:45:33.490Z,64.50
2018-08-16T14:48:07.995Z,64.70
2018-08-16T14:50:38.509Z,66.00
2018-08-16T14:53:08.244Z,67.20
2018-08-16T14:55:37.503Z,65.10
2018-08-16T14:58:08.195Z,63.80
2018-08-16T15:00:37.335Z,65.70
2018-08-16T15:03:06.529Z,63.80
2018-08-16T15:05:35.921Z,67.40
2018-08-16T15:08:05.232Z,66.30
2018-08-16T15:10:34.475Z,65.30
2018-08-16T15:13:03.687Z,65.80
2018-08-16T15:15:32.883Z,66.70
2018-08-16T15:18:02.363Z,65.30
2018-08-16T15:20:31.610Z,65.50
2018-08-16T15:23:00.710Z,64.30
2018-08-16T15:25:30.059Z,65.00
2018-08-16T15:28:00.247Z,65.50
2018-08-16T15:30:29.662Z,65.20
2018-08-16T15:32:59.916Z,66.10
2018-08-16T15:35:29.142Z,67.10
2018-08-16T15:37:58.354Z,66.50
2018-08-16T15:40:27.597Z,66.50
2018-08-16T15:42:57.329Z,67.80
2018-08-16T15:45:26.487Z,66.60
2018-08-16T15:47:55.700Z,66.70
2018-08-16T15:50:24.753Z,66.50
2018-08-16T15:52:54.134Z,67.20
2018-08-16T15:55:23.484Z,67.60
2018-08-16T15:57:52.779Z,70.20
2018-08-16T16:00:22.062Z,69.30
2018-08-16T16:02:51.375Z,69.30
2018-08-16T16:05:20.694Z,70.00
2018-08-16T16:07:50.137Z,71.20
2018-08-16T16:10:19.942Z,70.40
2018-08-16T16:12:49.158Z,70.30
2018-08-16T16:15:18.571Z,71.60
2018-08-16T16:17:47.848Z,70.30
2018-08-16T16:20:17.051Z,71.20
2018-08-16T16:22:46.361Z,71.10
2018-08-16T16:25:15.459Z,71.80
2018-08-16T16:27:44.573Z,70.80
2018-08-16T16:30:13.742Z,72.10
2018-08-16T16:32:43.857Z,73.70
2018-08-16T16:35:12.966Z,74.80
2018-08-16T16:37:42.269Z,75.50
2018-08-16T16:40:12.534Z,78.20
2018-08-16T16:42:41.775Z,79.30
2018-08-16T16:45:10.956Z,76.90
2018-08-16T16:47:39.982Z,79.10
2018-08-16T16:50:09.979Z,80.30
2018-08-16T16:52:40.075Z,79.80
2018-08-16T16:55:09.182Z,79.00
2018-08-16T16:57:38.456Z,80.00
2018-08-16T17:00:08.727Z,81.30
2018-08-16T17:02:38.005Z,81.10
2018-08-16T17:05:07.345Z,84.10
2018-08-16T17:07:36.725Z,82.40
2018-08-16T17:10:08.543Z,83.60
2018-08-16T17:12:37.601Z,83.20
2018-08-16T17:15:07.110Z,83.20
2018-08-16T17:17:37.410Z,86.20
2018-08-16T17:20:07.108Z,82.10
2018-08-16T17:22:36.345Z,86.30
2018-08-16T17:25:05.953Z,83.20
2018-08-16T17:27:35.306Z,84.70
2018-08-16T17:30:05.478Z,85.60
2018-08-16T17:32:34.665Z,83.30
2018-08-16T17:35:03.869Z,84.30
2018-08-16T17:37:33.155Z,85.20
2018-08-16T17:40:02.584Z,84.90
2018-08-16T17:42:31.760Z,84.90
2018-08-16T17:45:01.038Z,86.80
2018-08-16T17:47:30.221Z,85.50
2018-08-16T17:49:59.440Z,86.70
2018-08-16T17:52:28.631Z,87.60
2018-08-16T17:54:58.122Z,90.70
2018-08-16T17:57:27.166Z,87.20
2018-08-16T17:59:56.349Z,89.30
2018-08-16T18:02:25.510Z,89.50
2018-08-16T18:04:54.710Z,91.20
2018-08-16T18:07:23.786Z,90.80
2018-08-16T18:09:53.379Z,90.80
2018-08-16T18:12:22.557Z,91.60
2018-08-16T18:14:52.009Z,92.00
2018-08-16T18:17:21.096Z,92.50
2018-08-16T18:19:50.274Z,92.60
2018-08-16T18:22:20.357Z,92.50
2018-08-16T18:24:50.516Z,93.30
2018-08-16T18:27:19.671Z,93.10
2018-08-16T18:29:48.802Z,93.50
2018-08-16T18:32:17.925Z,93.70
2018-08-16T18:34:48.863Z,93.50
2018-08-16T18:37:17.922Z,93.60
2018-08-16T18:39:46.984Z,94.00
2018-08-16T18:42:16.209Z,94.20
2018-08-16T18:44:45.351Z,94.90
2018-08-16T18:47:14.437Z,95.00
2018-08-16T18:49:44.536Z,95.40
2018-08-16T18:52:13.625Z,96.10
2018-08-16T18:54:43.465Z,96.00
2018-08-16T18:57:12.579Z,96.10
2018-08-16T18:59:41.752Z,96.30
2018-08-16T19:02:10.897Z,96.40
2018-08-16T19:04:39.934Z,96.40
2018-08-16T19:07:08.974Z,96.50
2018-08-16T19:09:38.131Z,96.80
2018-08-16T19:12:07.585Z,97.40
2018-08-16T19:14:37.079Z,97.90
2018-08-16T19:17:06.247Z,97.90
2018-08-16T19:19:35.450Z,98.40
2018-08-16T19:22:04.817Z,98.80
2018-08-16T19:24:34.012Z,98.90
2018-08-16T19:27:04.282Z,99.20
2018-08-16T19:29:34.431Z,99.30
2018-08-16T19:32:03.472Z,99.70
2018-08-16T19:34:32.544Z,99.60
2018-08-16T19:37:01.768Z,99.80
2018-08-16T19:39:30.938Z,99.90
2018-08-16T19:42:00.428Z,99.90
2018-08-16T19:44:29.667Z,99.90
2018-08-16T19:47:00.657Z,99.90
2018-08-16T19:49:29.650Z,99.90
2018-08-16T19:51:58.836Z,99.90
2018-08-16T19:54:28.093Z,99.90
2018-08-16T19:56:57.536Z,99.90
2018-08-16T19:59:27.065Z,99.90
2018-08-16T20:01:56.536Z,99.90
2018-08-16T20:04:25.853Z,99.90
2018-08-16T20:06:54.841Z,99.90
2018-08-16T20:09:23.903Z,99.90
2018-08-16T20:11:53.021Z,99.90
2018-08-16T20:14:22.214Z,99.90
2018-08-16T20:16:51.223Z,99.90
2018-08-16T20:19:20.381Z,99.90
2018-08-16T20:21:49.419Z,99.90
2018-08-16T20:24:18.470Z,99.90
2018-08-16T20:26:47.518Z,99.90
2018-08-16T20:29:16.768Z,99.90
2018-08-16T20:31:45.855Z,99.90
2018-08-16T20:34:15.036Z,99.90
2018-08-16T20:36:44.023Z,99.90
2018-08-16T20:39:13.210Z,99.90
2018-08-16T20:41:42.398Z,99.90
2018-08-16T20:44:11.497Z,99.90
2018-08-16T20:46:40.719Z,99.90
2018-08-16T20:49:09.861Z,99.90
2018-08-16T20:51:39.012Z,99.90
2018-08-16T20:54:08.340Z,99.90
2018-08-16T20:56:37.481Z,99.90
2018-08-16T20:59:06.570Z,99.90
2018-08-16T21:01:35.808Z,99.90
2018-08-16T21:04:04.879Z,99.90
2018-08-16T21:06:33.910Z,99.90
2018-08-16T21:09:03.055Z,99.90
2018-08-16T21:11:32.151Z,99.90
2018-08-16T21:14:01.161Z,99.90
2018-08-16T21:16:30.197Z,99.90
2018-08-16T21:18:59.262Z,99.90
2018-08-16T21:21:28.269Z,99.90
2018-08-16T21:23:57.299Z,99.90
2018-08-16T21:26:26.501Z,99.90
2018-08-16T21:28:55.576Z,99.90
2018-08-16T21:31:25.740Z,99.90
2018-08-16T21:33:54.855Z,99.90
2018-08-16T21:36:23.863Z,99.90
2018-08-16T21:38:52.921Z,99.90
2018-08-16T21:41:21.907Z,99.90
2018-08-16T21:43:50.946Z,99.90
2018-08-16T21:46:20.046Z,99.90
2018-08-16T21:48:49.347Z,99.90
2018-08-16T21:51:18.571Z,99.90
2018-08-16T21:53:47.578Z,99.90
2018-08-16T21:56:16.758Z,99.90
2018-08-16T21:58:45.875Z,99.90
2018-08-16T22:01:16.043Z,99.90
2018-08-16T22:03:45.202Z,99.90
2018-08-16T22:06:25.738Z,99.90
2018-08-16T22:08:54.799Z,99.90
2018-08-16T22:11:23.777Z,99.90
2018-08-16T22:13:52.812Z,99.90
2018-08-16T22:16:21.795Z,99.90
2018-08-16T22:18:51.120Z,99.90
2018-08-16T22:21:20.178Z,99.90
2018-08-16T22:23:49.325Z,99.90
2018-08-16T22:26:18.770Z,99.90
2018-08-16T22:28:47.641Z,99.90
2018-08-16T22:31:16.644Z,99.90
2018-08-16T22:33:45.610Z,99.90
2018-08-16T22:36:14.750Z,99.90
2018-08-16T22:38:43.954Z,99.90
2018-08-16T22:41:13.106Z,99.90
2018-08-16T22:43:42.191Z,99.90
2018-08-16T22:46:11.201Z,99.90
2018-08-16T22:48:40.181Z,99.90
2018-08-16T22:51:09.186Z,99.90
2018-08-16T22:53:38.240Z,99.90
2018-08-16T22:56:07.770Z,99.90
2018-08-16T22:58:36.761Z,99.90
2018-08-16T23:01:05.744Z,99.90
2018-08-16T23:03:34.733Z,99.90
2018-08-16T23:06:03.736Z,99.90
2018-08-16T23:08:32.866Z,99.90
2018-08-16T23:11:01.883Z,99.90
2018-08-16T23:13:31.085Z,99.90
2018-08-16T23:16:00.096Z,99.90
2018-08-16T23:18:29.270Z,99.90
2018-08-16T23:20:58.407Z,99.90
2018-08-16T23:23:27.414Z,99.90
2018-08-16T23:25:56.411Z,99.90
2018-08-16T23:28:25.435Z,99.90
2018-08-16T23:30:54.525Z,99.90
2018-08-16T23:33:23.597Z,99.90
2018-08-16T23:35:52.642Z,99.90
2018-08-16T23:38:21.633Z,99.90
2018-08-16T23:40:50.686Z,99.90
2018-08-16T23:43:19.690Z,99.90
2018-08-16T23:45:49.748Z,99.90
2018-08-16T23:48:29.127Z,99.90
2018-08-16T23:50:58.872Z,99.90
2018-08-16T23:53:28.120Z,99.90
2018-08-16T23:55:57.346Z,99.90
2018-08-16T23:58:26.480Z,99.90
